sensor_id;sensor_type;location;lat;lon;timestamp;pressure;altitude;pressure_sealevel;temperature;humidity
19624;BME280;9959;49.798;9.928;2022-10-16T00:01:47;99327.59;;;15.18;nan
19624;BME280;9959;49.798;9.928;2022-10-16T00:04:15;99322.03;;;15.20;nan
19624;BME280;9959;49.798;9.928;2022-10-16T00:06:43;99326.56;;;15.24;nan
19624;BME280;9959;49.798;9.928;2022-10-16T00:09:13;99322.53;;;15.17;nan
19624;BME280;9959;49.798;9.928;2022-10-16T00:11:41;99323.81;;;15.09;nan
19624;BME280;9959;49.798;9.928;2022-10-16T00:14:12;99327.25;;;15.04;nan
19624;BME280;9959;49.798;9.928;2022-10-16T00:16:42;99320.06;;;15.00;nan
19624;BME280;9959;49.798;9.928;2022-10-16T00:19:11;99323.81;;;15.04;nan
19624;BME280;9959;49.798;9.928;2022-10-16T00:21:40;99324.88;;;15.03;nan
19624;BME280;9959;49.798;9.928;2022-10-16T00:24:09;99317.94;;;14.97;nan
19624;BME280;9959;49.798;9.928;2022-10-16T00:26:38;99325.09;;;14.96;nan
19624;BME280;9959;49.798;9.928;2022-10-16T00:29:07;99327.72;;;14.96;nan
19624;BME280;9959;49.798;9.928;2022-10-16T00:31:35;99329.31;;;14.92;nan
19624;BME280;9959;49.798;9.928;2022-10-16T00:34:05;99341.25;;;14.89;nan
19624;BME280;9959;49.798;9.928;2022-10-16T00:36:33;99335.69;;;14.91;nan
19624;BME280;9959;49.798;9.928;2022-10-16T00:39:01;99322.13;;;14.87;nan
19624;BME280;9959;49.798;9.928;2022-10-16T00:41:31;99321.03;;;14.83;nan
19624;BME280;9959;49.798;9.928;2022-10-16T00:44:00;99313.56;;;14.80;nan
19624;BME280;9959;49.798;9.928;2022-10-16T00:46:35;99325.78;;;14.81;nan
19624;BME280;9959;49.798;9.928;2022-10-16T00:49:08;99324.19;;;14.80;nan
19624;BME280;9959;49.798;9.928;2022-10-16T00:51:38;99320.19;;;14.78;nan
19624;BME280;9959;49.798;9.928;2022-10-16T00:54:10;99319.66;;;14.81;nan
19624;BME280;9959;49.798;9.928;2022-10-16T00:56:40;99313.84;;;14.79;nan
19624;BME280;9959;49.798;9.928;2022-10-16T00:59:14;99327.09;;;14.79;nan
19624;BME280;9959;49.798;9.928;2022-10-16T01:01:43;99326.31;;;14.78;nan
19624;BME280;9959;49.798;9.928;2022-10-16T01:04:13;99330.00;;;14.77;nan
19624;BME280;9959;49.798;9.928;2022-10-16T01:06:48;99335.56;;;14.76;nan
19624;BME280;9959;49.798;9.928;2022-10-16T01:09:23;99342.00;;;14.85;nan
19624;BME280;9959;49.798;9.928;2022-10-16T01:12:02;99351.50;;;14.76;nan
19624;BME280;9959;49.798;9.928;2022-10-16T01:14:40;99352.53;;;14.69;nan
19624;BME280;9959;49.798;9.928;2022-10-16T01:17:18;99356.50;;;14.72;nan
19624;BME280;9959;49.798;9.928;2022-10-16T01:20:13;99365.03;;;14.74;nan
19624;BME280;9959;49.798;9.928;2022-10-16T01:22:56;99369.81;;;14.77;nan
19624;BME280;9959;49.798;9.928;2022-10-16T01:25:36;99376.16;;;14.71;nan
19624;BME280;9959;49.798;9.928;2022-10-16T01:28:10;99375.88;;;14.72;nan
19624;BME280;9959;49.798;9.928;2022-10-16T01:30:42;99367.63;;;14.69;nan
19624;BME280;9959;49.798;9.928;2022-10-16T01:33:16;99372.91;;;14.64;nan
19624;BME280;9959;49.798;9.928;2022-10-16T01:35:47;99371.28;;;14.63;nan
19624;BME280;9959;49.798;9.928;2022-10-16T01:38:23;99380.88;;;14.64;nan
19624;BME280;9959;49.798;9.928;2022-10-16T01:40:59;99376.09;;;14.66;nan
19624;BME280;9959;49.798;9.928;2022-10-16T01:43:33;99372.13;;;14.68;nan
19624;BME280;9959;49.798;9.928;2022-10-16T01:46:03;99374.53;;;14.70;nan
19624;BME280;9959;49.798;9.928;2022-10-16T01:48:34;99360.75;;;14.68;nan
19624;BME280;9959;49.798;9.928;2022-10-16T01:51:06;99357.56;;;14.71;nan
19624;BME280;9959;49.798;9.928;2022-10-16T01:53:36;99368.44;;;14.69;nan
19624;BME280;9959;49.798;9.928;2022-10-16T01:56:08;99376.16;;;14.71;nan
19624;BME280;9959;49.798;9.928;2022-10-16T01:58:41;99367.38;;;14.70;nan
19624;BME280;9959;49.798;9.928;2022-10-16T02:01:13;99375.84;;;14.67;nan
19624;BME280;9959;49.798;9.928;2022-10-16T02:03:44;99363.13;;;14.69;nan
19624;BME280;9959;49.798;9.928;2022-10-16T02:06:14;99355.66;;;14.66;nan
19624;BME280;9959;49.798;9.928;2022-10-16T02:08:42;99361.78;;;14.67;nan
19624;BME280;9959;49.798;9.928;2022-10-16T02:11:10;99357.25;;;14.62;nan
19624;BME280;9959;49.798;9.928;2022-10-16T02:13:43;99359.91;;;14.62;nan
19624;BME280;9959;49.798;9.928;2022-10-16T02:16:13;99361.22;;;14.65;nan
19624;BME280;9959;49.798;9.928;2022-10-16T02:18:43;99360.13;;;14.61;nan
19624;BME280;9959;49.798;9.928;2022-10-16T02:21:16;99361.78;;;14.67;nan
19624;BME280;9959;49.798;9.928;2022-10-16T02:23:51;99369.44;;;14.63;nan
19624;BME280;9959;49.798;9.928;2022-10-16T02:26:27;99364.59;;;14.60;nan
19624;BME280;9959;49.798;9.928;2022-10-16T02:29:01;99364.13;;;14.63;nan
19624;BME280;9959;49.798;9.928;2022-10-16T02:31:35;99355.59;;;14.61;nan
19624;BME280;9959;49.798;9.928;2022-10-16T02:34:04;99360.13;;;14.61;nan
19624;BME280;9959;49.798;9.928;2022-10-16T02:36:34;99363.34;;;14.63;nan
19624;BME280;9959;49.798;9.928;2022-10-16T02:39:04;99373.69;;;14.64;nan
19624;BME280;9959;49.798;9.928;2022-10-16T02:41:33;99364.13;;;14.63;nan
19624;BME280;9959;49.798;9.928;2022-10-16T02:44:03;99366.28;;;14.66;nan
19624;BME280;9959;49.798;9.928;2022-10-16T02:46:31;99371.28;;;14.63;nan
19624;BME280;9959;49.798;9.928;2022-10-16T02:49:00;99376.34;;;14.64;nan
19624;BME280;9959;49.798;9.928;2022-10-16T02:51:28;99375.59;;;14.69;nan
19624;BME280;9959;49.798;9.928;2022-10-16T02:53:56;99381.44;;;14.71;nan
19624;BME280;9959;49.798;9.928;2022-10-16T02:56:25;99382.44;;;14.65;nan
19624;BME280;9959;49.798;9.928;2022-10-16T02:58:53;99377.66;;;14.62;nan
19624;BME280;9959;49.798;9.928;2022-10-16T03:01:23;99377.41;;;14.63;nan
19624;BME280;9959;49.798;9.928;2022-10-16T03:03:51;99377.13;;;14.65;nan
19624;BME280;9959;49.798;9.928;2022-10-16T03:06:20;99366.22;;;14.61;nan
19624;BME280;9959;49.798;9.928;2022-10-16T03:08:48;99381.13;;;14.62;nan
19624;BME280;9959;49.798;9.928;2022-10-16T03:11:17;99372.28;;;14.56;nan
19624;BME280;9959;49.798;9.928;2022-10-16T03:13:45;99368.03;;;14.55;nan
19624;BME280;9959;49.798;9.928;2022-10-16T03:16:13;99363.56;;;14.61;nan
19624;BME280;9959;49.798;9.928;2022-10-16T03:18:43;99369.06;;;14.54;nan
19624;BME280;9959;49.798;9.928;2022-10-16T03:21:11;99360.84;;;14.56;nan
19624;BME280;9959;49.798;9.928;2022-10-16T03:23:39;99350.41;;;14.44;nan
19624;BME280;9959;49.798;9.928;2022-10-16T03:26:07;99347.22;;;14.42;nan
19624;BME280;9959;49.798;9.928;2022-10-16T03:28:35;99361.53;;;14.41;nan
19624;BME280;9959;49.798;9.928;2022-10-16T03:31:03;99369.75;;;14.39;nan
19624;BME280;9959;49.798;9.928;2022-10-16T03:33:31;99375.31;;;14.38;nan
19624;BME280;9959;49.798;9.928;2022-10-16T03:36:00;99372.09;;;14.36;nan
19624;BME280;9959;49.798;9.928;2022-10-16T03:38:28;99372.66;;;14.38;nan
19624;BME280;9959;49.798;9.928;2022-10-16T03:40:56;99372.34;;;14.34;nan
19624;BME280;9959;49.798;9.928;2022-10-16T03:43:24;99382.16;;;14.34;nan
19624;BME280;9959;49.798;9.928;2022-10-16T03:45:52;99376.84;;;14.34;nan
19624;BME280;9959;49.798;9.928;2022-10-16T03:48:20;99378.41;;;14.30;nan
19624;BME280;9959;49.798;9.928;2022-10-16T03:50:48;99372.06;;;14.31;nan
19624;BME280;9959;49.798;9.928;2022-10-16T03:53:19;99374.44;;;14.32;nan
19624;BME280;9959;49.798;9.928;2022-10-16T03:55:47;99391.47;;;14.36;nan
19624;BME280;9959;49.798;9.928;2022-10-16T03:58:16;99380.00;;;14.31;nan
19624;BME280;9959;49.798;9.928;2022-10-16T04:00:45;99383.16;;;14.28;nan
19624;BME280;9959;49.798;9.928;2022-10-16T04:03:14;99382.59;;;14.26;nan
19624;BME280;9959;49.798;9.928;2022-10-16T04:05:42;99375.22;;;14.28;nan
19624;BME280;9959;49.798;9.928;2022-10-16T04:08:10;99379.41;;;14.23;nan
19624;BME280;9959;49.798;9.928;2022-10-16T04:10:42;99384.16;;;14.21;nan
19624;BME280;9959;49.798;9.928;2022-10-16T04:13:11;99390.56;;;14.26;nan
19624;BME280;9959;49.798;9.928;2022-10-16T04:15:39;99392.94;;;14.27;nan
19624;BME280;9959;49.798;9.928;2022-10-16T04:18:07;99394.03;;;14.26;nan
19624;BME280;9959;49.798;9.928;2022-10-16T04:20:35;99405.44;;;14.27;nan
19624;BME280;9959;49.798;9.928;2022-10-16T04:23:03;99406.22;;;14.27;nan
19624;BME280;9959;49.798;9.928;2022-10-16T04:25:31;99405.44;;;14.27;nan
19624;BME280;9959;49.798;9.928;2022-10-16T04:28:00;99400.41;;;14.30;nan
19624;BME280;9959;49.798;9.928;2022-10-16T04:30:28;99397.22;;;14.28;nan
19624;BME280;9959;49.798;9.928;2022-10-16T04:32:56;99396.72;;;14.31;nan
19624;BME280;9959;49.798;9.928;2022-10-16T04:35:24;99397.22;;;14.28;nan
19624;BME280;9959;49.798;9.928;2022-10-16T04:37:52;99395.16;;;14.35;nan
19624;BME280;9959;49.798;9.928;2022-10-16T04:40:20;99395.44;;;14.39;nan
19624;BME280;9959;49.798;9.928;2022-10-16T04:42:48;99404.22;;;14.39;nan
19624;BME280;9959;49.798;9.928;2022-10-16T04:45:17;99421.59;;;14.52;nan
19624;BME280;9959;49.798;9.928;2022-10-16T04:47:45;99425.53;;;14.50;nan
19624;BME280;9959;49.798;9.928;2022-10-16T04:50:13;99431.28;;;14.42;nan
19624;BME280;9959;49.798;9.928;2022-10-16T04:52:41;99428.84;;;14.35;nan
19624;BME280;9959;49.798;9.928;2022-10-16T04:55:09;99437.06;;;14.33;nan
19624;BME280;9959;49.798;9.928;2022-10-16T04:57:37;99441.28;;;14.34;nan
19624;BME280;9959;49.798;9.928;2022-10-16T05:00:06;99442.09;;;14.35;nan
19624;BME280;9959;49.798;9.928;2022-10-16T05:02:35;99431.50;;;14.35;nan
19624;BME280;9959;49.798;9.928;2022-10-16T05:05:04;99422.47;;;14.36;nan
19624;BME280;9959;49.798;9.928;2022-10-16T05:07:32;99421.44;;;14.37;nan
19624;BME280;9959;49.798;9.928;2022-10-16T05:10:00;99418.53;;;14.38;nan
19624;BME280;9959;49.798;9.928;2022-10-16T05:12:28;99408.16;;;14.37;nan
19624;BME280;9959;49.798;9.928;2022-10-16T05:14:56;99408.16;;;14.37;nan
19624;BME280;9959;49.798;9.928;2022-10-16T05:17:25;99417.13;;;14.31;nan
19624;BME280;9959;49.798;9.928;2022-10-16T05:19:55;99436.16;;;14.50;nan
19624;BME280;9959;49.798;9.928;2022-10-16T05:22:22;99436.84;;;14.40;nan
19624;BME280;9959;49.798;9.928;2022-10-16T05:24:50;99435.94;;;14.29;nan
19624;BME280;9959;49.798;9.928;2022-10-16T05:27:18;99433.56;;;14.28;nan
19624;BME280;9959;49.798;9.928;2022-10-16T05:29:47;99429.78;;;14.23;nan
19624;BME280;9959;49.798;9.928;2022-10-16T05:32:16;99441.75;;;14.26;nan
19624;BME280;9959;49.798;9.928;2022-10-16T05:34:44;99429.78;;;14.23;nan
19624;BME280;9959;49.798;9.928;2022-10-16T05:37:13;99431.38;;;14.25;nan
19624;BME280;9959;49.798;9.928;2022-10-16T05:39:41;99436.19;;;14.28;nan
19624;BME280;9959;49.798;9.928;2022-10-16T05:42:09;99422.19;;;14.32;nan
19624;BME280;9959;49.798;9.928;2022-10-16T05:44:37;99425.84;;;14.26;nan
19624;BME280;9959;49.798;9.928;2022-10-16T05:47:05;99419.69;;;14.20;nan
19624;BME280;9959;49.798;9.928;2022-10-16T05:49:33;99432.72;;;14.27;nan
19624;BME280;9959;49.798;9.928;2022-10-16T05:52:04;99432.69;;;14.22;nan
19624;BME280;9959;49.798;9.928;2022-10-16T05:54:34;99445.69;;;14.23;nan
19624;BME280;9959;49.798;9.928;2022-10-16T05:57:02;99439.09;;;14.26;nan
19624;BME280;9959;49.798;9.928;2022-10-16T05:59:32;99437.25;;;14.27;nan
19624;BME280;9959;49.798;9.928;2022-10-16T06:02:00;99432.47;;;14.29;nan
19624;BME280;9959;49.798;9.928;2022-10-16T06:04:28;99440.44;;;14.29;nan
19624;BME280;9959;49.798;9.928;2022-10-16T06:06:58;99452.66;;;14.30;nan
19624;BME280;9959;49.798;9.928;2022-10-16T06:09:27;99456.91;;;14.31;nan
19624;BME280;9959;49.798;9.928;2022-10-16T06:11:56;99449.25;;;14.34;nan
19624;BME280;9959;49.798;9.928;2022-10-16T06:14:25;99459.34;;;14.37;nan
19624;BME280;9959;49.798;9.928;2022-10-16T06:16:53;99458.13;;;14.45;nan
19624;BME280;9959;49.798;9.928;2022-10-16T06:19:21;99458.88;;;14.40;nan
19624;BME280;9959;49.798;9.928;2022-10-16T06:21:49;99463.31;;;14.35;nan
19624;BME280;9959;49.798;9.928;2022-10-16T06:24:17;99463.88;;;14.37;nan
19624;BME280;9959;49.798;9.928;2022-10-16T06:26:45;99455.16;;;14.42;nan
19624;BME280;9959;49.798;9.928;2022-10-16T06:29:15;99458.06;;;14.40;nan
19624;BME280;9959;49.798;9.928;2022-10-16T06:31:43;99468.41;;;14.42;nan
19624;BME280;9959;49.798;9.928;2022-10-16T06:34:12;99471.38;;;14.45;nan
19624;BME280;9959;49.798;9.928;2022-10-16T06:36:40;99484.75;;;14.55;nan
19624;BME280;9959;49.798;9.928;2022-10-16T06:39:10;99491.91;;;14.55;nan
19624;BME280;9959;49.798;9.928;2022-10-16T06:41:38;99499.91;;;14.60;nan
19624;BME280;9959;49.798;9.928;2022-10-16T06:44:06;99494.38;;;14.62;nan
19624;BME280;9959;49.798;9.928;2022-10-16T06:46:36;99496.00;;;14.63;nan
19624;BME280;9959;49.798;9.928;2022-10-16T06:49:04;99506.50;;;14.80;nan
19624;BME280;9959;49.798;9.928;2022-10-16T06:51:32;99506.03;;;14.88;nan
19624;BME280;9959;49.798;9.928;2022-10-16T06:54:06;99504.53;;;14.97;nan
19624;BME280;9959;49.798;9.928;2022-10-16T06:56:35;99506.75;;;15.05;nan
19624;BME280;9959;49.798;9.928;2022-10-16T06:59:03;99521.19;;;15.20;nan
19624;BME280;9959;49.798;9.928;2022-10-16T07:01:32;99521.78;;;15.27;nan
19624;BME280;9959;49.798;9.928;2022-10-16T07:04:02;99521.69;;;15.17;nan
19624;BME280;9959;49.798;9.928;2022-10-16T07:06:32;99536.28;;;15.14;nan
19624;BME280;9959;49.798;9.928;2022-10-16T07:09:03;99534.44;;;15.15;nan
19624;BME280;9959;49.798;9.928;2022-10-16T07:11:32;99534.75;;;15.18;nan
19624;BME280;9959;49.798;9.928;2022-10-16T07:14:01;99538.94;;;15.14;nan
19624;BME280;9959;49.798;9.928;2022-10-16T07:16:31;99546.66;;;15.16;nan
19624;BME280;9959;49.798;9.928;2022-10-16T07:19:02;99551.47;;;15.24;nan
19624;BME280;9959;49.798;9.928;2022-10-16T07:21:32;99562.69;;;15.26;nan
19624;BME280;9959;49.798;9.928;2022-10-16T07:24:04;99572.97;;;15.22;nan
19624;BME280;9959;49.798;9.928;2022-10-16T07:26:34;99585.28;;;15.29;nan
19624;BME280;9959;49.798;9.928;2022-10-16T07:29:02;99588.47;;;15.31;nan
19624;BME280;9959;49.798;9.928;2022-10-16T07:31:31;99591.75;;;15.11;nan
19624;BME280;9959;49.798;9.928;2022-10-16T07:34:00;99565.53;;;14.92;nan
19624;BME280;9959;49.798;9.928;2022-10-16T07:36:29;99559.38;;;14.86;nan
19624;BME280;9959;49.798;9.928;2022-10-16T07:38:58;99557.22;;;14.83;nan
19624;BME280;9959;49.798;9.928;2022-10-16T07:41:26;99567.91;;;14.88;nan
19624;BME280;9959;49.798;9.928;2022-10-16T07:43:55;99570.34;;;14.95;nan
19624;BME280;9959;49.798;9.928;2022-10-16T07:46:27;99578.56;;;14.94;nan
19624;BME280;9959;49.798;9.928;2022-10-16T07:48:55;99581.03;;;15.00;nan
19624;BME280;9959;49.798;9.928;2022-10-16T07:51:25;99583.38;;;14.97;nan
19624;BME280;9959;49.798;9.928;2022-10-16T07:53:55;99578.81;;;15.19;nan
19624;BME280;9959;49.798;9.928;2022-10-16T07:56:23;99580.06;;;15.12;nan
19624;BME280;9959;49.798;9.928;2022-10-16T07:58:52;99575.44;;;15.29;nan
19624;BME280;9959;49.798;9.928;2022-10-16T08:01:20;99575.84;;;15.43;nan
19624;BME280;9959;49.798;9.928;2022-10-16T08:03:50;99587.50;;;15.42;nan
19624;BME280;9959;49.798;9.928;2022-10-16T08:06:19;99590.59;;;15.29;nan
19624;BME280;9959;49.798;9.928;2022-10-16T08:08:52;99594.28;;;15.27;nan
19624;BME280;9959;49.798;9.928;2022-10-16T08:11:21;99590.28;;;15.25;nan
19624;BME280;9959;49.798;9.928;2022-10-16T08:13:49;99592.88;;;15.47;nan
19624;BME280;9959;49.798;9.928;2022-10-16T08:16:17;99592.47;;;15.33;nan
19624;BME280;9959;49.798;9.928;2022-10-16T08:18:46;99600.03;;;15.47;nan
19624;BME280;9959;49.798;9.928;2022-10-16T08:21:15;99599.25;;;15.51;nan
19624;BME280;9959;49.798;9.928;2022-10-16T08:23:47;99593.66;;;15.48;nan
19624;BME280;9959;49.798;9.928;2022-10-16T08:26:21;99596.56;;;15.78;nan
19624;BME280;9959;49.798;9.928;2022-10-16T08:28:49;99608.91;;;15.57;nan
19624;BME280;9959;49.798;9.928;2022-10-16T08:31:18;99604.50;;;15.73;nan
19624;BME280;9959;49.798;9.928;2022-10-16T08:33:46;99621.38;;;15.89;nan
19624;BME280;9959;49.798;9.928;2022-10-16T08:36:15;99627.81;;;15.99;nan
19624;BME280;9959;49.798;9.928;2022-10-16T08:38:43;99627.66;;;16.10;nan
19624;BME280;9959;49.798;9.928;2022-10-16T08:41:36;99631.72;;;16.28;nan
19624;BME280;9959;49.798;9.928;2022-10-16T08:44:28;99629.59;;;16.25;nan
19624;BME280;9959;49.798;9.928;2022-10-16T08:47:02;99632.81;;;16.33;nan
19624;BME280;9959;49.798;9.928;2022-10-16T08:49:37;99632.41;;;16.67;nan
19624;BME280;9959;49.798;9.928;2022-10-16T08:52:13;99627.47;;;16.91;nan
19624;BME280;9959;49.798;9.928;2022-10-16T08:54:44;99633.00;;;16.79;nan
19624;BME280;9959;49.798;9.928;2022-10-16T08:57:19;99635.28;;;17.18;nan
19624;BME280;9959;49.798;9.928;2022-10-16T08:59:50;99631.78;;;17.12;nan
19624;BME280;9959;49.798;9.928;2022-10-16T09:02:28;99632.81;;;16.91;nan
19624;BME280;9959;49.798;9.928;2022-10-16T09:05:24;99638.69;;;17.08;nan
19624;BME280;9959;49.798;9.928;2022-10-16T09:08:03;99642.19;;;17.09;nan
19624;BME280;9959;49.798;9.928;2022-10-16T09:10:45;99648.34;;;17.25;nan
19624;BME280;9959;49.798;9.928;2022-10-16T09:13:21;99649.19;;;17.46;nan
19624;BME280;9959;49.798;9.928;2022-10-16T09:15:58;99654.47;;;17.25;nan
19624;BME280;9959;49.798;9.928;2022-10-16T09:18:33;99649.69;;;17.27;nan
19624;BME280;9959;49.798;9.928;2022-10-16T09:21:10;99652.06;;;17.19;nan
19624;BME280;9959;49.798;9.928;2022-10-16T09:23:41;99658.97;;;17.09;nan
19624;BME280;9959;49.798;9.928;2022-10-16T09:26:12;99662.50;;;17.41;nan
19624;BME280;9959;49.798;9.928;2022-10-16T09:28:42;99658.50;;;17.84;nan
19624;BME280;9959;49.798;9.928;2022-10-16T09:31:15;99667.31;;;17.75;nan
19624;BME280;9959;49.798;9.928;2022-10-16T09:33:45;99666.25;;;17.60;nan
19624;BME280;9959;49.798;9.928;2022-10-16T09:36:15;99667.84;;;17.77;nan
19624;BME280;9959;49.798;9.928;2022-10-16T09:38:43;99669.16;;;17.43;nan
19624;BME280;9959;49.798;9.928;2022-10-16T09:41:15;99666.50;;;17.54;nan
19624;BME280;9959;49.798;9.928;2022-10-16T09:43:53;99662.72;;;17.24;nan
19624;BME280;9959;49.798;9.928;2022-10-16T09:46:27;99672.84;;;17.22;nan
19624;BME280;9959;49.798;9.928;2022-10-16T09:48:58;99676.88;;;17.34;nan
19624;BME280;9959;49.798;9.928;2022-10-16T09:51:28;99688.59;;;17.44;nan
19624;BME280;9959;49.798;9.928;2022-10-16T09:53:59;99685.13;;;17.28;nan
19624;BME280;9959;49.798;9.928;2022-10-16T09:56:29;99685.41;;;17.31;nan
19624;BME280;9959;49.798;9.928;2022-10-16T09:59:08;99689.13;;;17.30;nan
19624;BME280;9959;49.798;9.928;2022-10-16T10:01:39;99691.28;;;17.39;nan
19624;BME280;9959;49.798;9.928;2022-10-16T10:04:07;99692.09;;;17.60;nan
19624;BME280;9959;49.798;9.928;2022-10-16T10:06:40;99692.31;;;17.43;nan
19624;BME280;9959;49.798;9.928;2022-10-16T10:09:20;99702.94;;;17.22;nan
19624;BME280;9959;49.798;9.928;2022-10-16T10:11:51;99702.66;;;17.13;nan
19624;BME280;9959;49.798;9.928;2022-10-16T10:14:31;99714.41;;;17.23;nan
19624;BME280;9959;49.798;9.928;2022-10-16T10:17:15;99709.03;;;17.12;nan
19624;BME280;9959;49.798;9.928;2022-10-16T10:19:55;99717.28;;;17.11;nan
19624;BME280;9959;49.798;9.928;2022-10-16T10:22:28;99717.56;;;17.04;nan
19624;BME280;9959;49.798;9.928;2022-10-16T10:25:00;99717.78;;;16.97;nan
19624;BME280;9959;49.798;9.928;2022-10-16T10:27:41;99738.53;;;16.95;nan
19624;BME280;9959;49.798;9.928;2022-10-16T10:30:19;99748.00;;;16.76;nan
19624;BME280;9959;49.798;9.928;2022-10-16T10:32:55;99757.19;;;16.53;nan
19624;BME280;9959;49.798;9.928;2022-10-16T10:35:32;99776.81;;;16.41;nan
19624;BME280;9959;49.798;9.928;2022-10-16T10:38:16;99750.31;;;16.19;nan
19624;BME280;9959;49.798;9.928;2022-10-16T10:40:55;99752.16;;;16.19;nan
19624;BME280;9959;49.798;9.928;2022-10-16T10:43:34;99743.66;;;16.22;nan
19624;BME280;9959;49.798;9.928;2022-10-16T10:46:14;99732.69;;;16.51;nan
19624;BME280;9959;49.798;9.928;2022-10-16T10:48:56;99738.72;;;16.78;nan
19624;BME280;9959;49.798;9.928;2022-10-16T10:51:39;99729.97;;;16.88;nan
19624;BME280;9959;49.798;9.928;2022-10-16T10:54:16;99720.97;;;16.99;nan
19624;BME280;9959;49.798;9.928;2022-10-16T10:56:55;99730.97;;;17.35;nan
19624;BME280;9959;49.798;9.928;2022-10-16T10:59:48;99723.31;;;17.80;nan
19624;BME280;9959;49.798;9.928;2022-10-16T11:02:26;99722.53;;;18.26;nan
19624;BME280;9959;49.798;9.928;2022-10-16T11:05:20;99731.34;;;18.16;nan
19624;BME280;9959;49.798;9.928;2022-10-16T11:07:53;99730.34;;;19.08;nan
19624;BME280;9959;49.798;9.928;2022-10-16T11:10:27;99728.94;;;19.21;nan
19624;BME280;9959;49.798;9.928;2022-10-16T11:13:02;99726.69;;;20.18;nan
19624;BME280;9959;49.798;9.928;2022-10-16T11:15:34;99734.50;;;19.74;nan
19624;BME280;9959;49.798;9.928;2022-10-16T11:18:07;99736.88;;;20.45;nan
19624;BME280;9959;49.798;9.928;2022-10-16T11:20:41;99732.13;;;20.37;nan
19624;BME280;9959;49.798;9.928;2022-10-16T11:23:16;99724.56;;;20.73;nan
19624;BME280;9959;49.798;9.928;2022-10-16T11:25:50;99726.22;;;20.40;nan
19624;BME280;9959;49.798;9.928;2022-10-16T11:28:23;99725.59;;;21.21;nan
19624;BME280;9959;49.798;9.928;2022-10-16T11:30:57;99717.47;;;22.30;nan
19624;BME280;9959;49.798;9.928;2022-10-16T11:33:32;99720.09;;;22.02;nan
19624;BME280;9959;49.798;9.928;2022-10-16T11:36:08;99719.31;;;22.34;nan
19624;BME280;9959;49.798;9.928;2022-10-16T11:38:46;99721.00;;;22.86;nan
19624;BME280;9959;49.798;9.928;2022-10-16T11:41:23;99717.03;;;22.83;nan
19624;BME280;9959;49.798;9.928;2022-10-16T11:44:03;99713.75;;;23.37;nan
19624;BME280;9959;49.798;9.928;2022-10-16T11:46:35;99720.25;;;23.36;nan
19624;BME280;9959;49.798;9.928;2022-10-16T11:49:27;99721.78;;;23.14;nan
19624;BME280;9959;49.798;9.928;2022-10-16T11:52:06;99718.81;;;22.74;nan
19624;BME280;9959;49.798;9.928;2022-10-16T11:54:45;99711.34;;;22.85;nan
19624;BME280;9959;49.798;9.928;2022-10-16T11:57:19;99706.19;;;22.61;nan
19624;BME280;9959;49.798;9.928;2022-10-16T11:59:51;99714.19;;;23.30;nan
19624;BME280;9959;49.798;9.928;2022-10-16T12:02:47;99707.16;;;22.37;nan
19624;BME280;9959;49.798;9.928;2022-10-16T12:05:24;99699.78;;;22.98;nan
19624;BME280;9959;49.798;9.928;2022-10-16T12:08:04;99704.72;;;24.01;nan
19624;BME280;9959;49.798;9.928;2022-10-16T12:10:35;99701.53;;;23.53;nan
19624;BME280;9959;49.798;9.928;2022-10-16T12:13:25;99688.47;;;23.38;nan
19624;BME280;9959;49.798;9.928;2022-10-16T12:16:04;99684.97;;;25.12;nan
19624;BME280;9959;49.798;9.928;2022-10-16T12:18:33;99689.69;;;24.40;nan
19624;BME280;9959;49.798;9.928;2022-10-16T12:21:03;99687.22;;;25.19;nan
19624;BME280;9959;49.798;9.928;2022-10-16T12:23:37;99682.66;;;25.45;nan
19624;BME280;9959;49.798;9.928;2022-10-16T12:26:06;99685.16;;;25.24;nan
19624;BME280;9959;49.798;9.928;2022-10-16T12:28:34;99690.09;;;25.31;nan
19624;BME280;9959;49.798;9.928;2022-10-16T12:31:05;99687.03;;;25.76;nan
19624;BME280;9959;49.798;9.928;2022-10-16T12:33:36;99692.16;;;25.43;nan
19624;BME280;9959;49.798;9.928;2022-10-16T12:36:12;99691.34;;;25.42;nan
19624;BME280;9959;49.798;9.928;2022-10-16T12:38:47;99699.16;;;27.16;nan
19624;BME280;9959;49.798;9.928;2022-10-16T12:41:24;99696.56;;;27.95;nan
19624;BME280;9959;49.798;9.928;2022-10-16T12:43:53;99698.47;;;27.95;nan
19624;BME280;9959;49.798;9.928;2022-10-16T12:46:26;99710.19;;;27.86;nan
19624;BME280;9959;49.798;9.928;2022-10-16T12:49:22;99705.44;;;27.83;nan
19624;BME280;9959;49.798;9.928;2022-10-16T12:51:58;99704.59;;;26.56;nan
19624;BME280;9959;49.798;9.928;2022-10-16T12:54:29;99697.59;;;27.36;nan
19624;BME280;9959;49.798;9.928;2022-10-16T12:57:08;99704.78;;;26.51;nan
19624;BME280;9959;49.798;9.928;2022-10-16T12:59:43;99705.50;;;26.69;nan
19624;BME280;9959;49.798;9.928;2022-10-16T13:05:37;99693.69;;;26.44;nan
19624;BME280;9959;49.798;9.928;2022-10-16T13:08:29;99703.13;;;26.97;nan
19624;BME280;9959;49.798;9.928;2022-10-16T13:11:07;99699.75;;;27.00;nan
19624;BME280;9959;49.798;9.928;2022-10-16T13:13:54;99710.50;;;26.88;nan
19624;BME280;9959;49.798;9.928;2022-10-16T13:16:35;99706.59;;;26.98;nan
19624;BME280;9959;49.798;9.928;2022-10-16T13:19:16;99718.22;;;28.90;nan
19624;BME280;9959;49.798;9.928;2022-10-16T13:21:50;99709.97;;;26.95;nan
19624;BME280;9959;49.798;9.928;2022-10-16T13:24:36;99721.78;;;29.19;nan
19624;BME280;9959;49.798;9.928;2022-10-16T13:27:13;99711.78;;;29.92;nan
19624;BME280;9959;49.798;9.928;2022-10-16T13:29:52;99713.56;;;28.17;nan
19624;BME280;9959;49.798;9.928;2022-10-16T13:32:22;99723.84;;;26.07;nan
19624;BME280;9959;49.798;9.928;2022-10-16T13:34:50;99713.13;;;25.37;nan
19624;BME280;9959;49.798;9.928;2022-10-16T13:37:23;99713.97;;;24.49;nan
19624;BME280;9959;49.798;9.928;2022-10-16T13:40:04;99719.53;;;24.12;nan
19624;BME280;9959;49.798;9.928;2022-10-16T13:42:35;99721.75;;;23.87;nan
19624;BME280;9959;49.798;9.928;2022-10-16T13:45:04;99721.94;;;23.68;nan
19624;BME280;9959;49.798;9.928;2022-10-16T13:47:32;99715.63;;;23.36;nan
19624;BME280;9959;49.798;9.928;2022-10-16T13:50:03;99711.09;;;23.23;nan
19624;BME280;9959;49.798;9.928;2022-10-16T13:52:33;99724.97;;;23.02;nan
19624;BME280;9959;49.798;9.928;2022-10-16T13:55:03;99728.00;;;22.73;nan
19624;BME280;9959;49.798;9.928;2022-10-16T13:57:31;99725.00;;;22.61;nan
19624;BME280;9959;49.798;9.928;2022-10-16T13:59:59;99734.69;;;22.29;nan
19624;BME280;9959;49.798;9.928;2022-10-16T14:02:30;99727.94;;;21.98;nan